createdAt,value
2022-10-15T00:01:20.429Z,10.90
2022-10-15T00:03:47.205Z,8.07
2022-10-15T00:06:17.935Z,8.98
2022-10-15T00:08:45.940Z,7.88
2022-10-15T00:11:18.461Z,73.93
2022-10-15T00:13:45.299Z,64.03
2022-10-15T00:16:15.219Z,6.18
2022-10-15T00:18:42.325Z,20.60
2022-10-15T00:21:10.725Z,34.65
2022-10-15T00:23:38.075Z,14.88
2022-10-15T00:26:07.493Z,10.68
2022-10-15T00:28:34.674Z,8.70
2022-10-15T00:31:06.533Z,11.98
2022-10-15T00:33:33.259Z,9.70
2022-10-15T00:36:05.446Z,8.98
2022-10-15T00:38:32.415Z,13.05
2022-10-15T00:41:00.036Z,12.15
2022-10-15T00:43:40.201Z,5.88
2022-10-15T00:46:15.551Z,43.53
2022-10-15T00:48:42.475Z,143.98
2022-10-15T00:51:09.690Z,134.02
2022-10-15T00:53:36.349Z,17.80
2022-10-15T00:56:03.463Z,24.92
2022-10-15T00:58:32.783Z,7.80
2022-10-15T01:00:59.717Z,5.07
2022-10-15T01:03:26.922Z,4.97
2022-10-15T01:05:54.796Z,4.78
2022-10-15T01:08:21.559Z,8.98
2022-10-15T01:11:04.543Z,5.38
2022-10-15T01:13:37.616Z,4.80
2022-10-15T01:16:37.344Z,7.93
2022-10-15T01:19:20.988Z,8.05
2022-10-15T01:22:05.134Z,9.43
2022-10-15T01:24:34.786Z,12.35
2022-10-15T01:29:52.522Z,21.38
2022-10-15T01:32:23.867Z,10.75
2022-10-15T01:34:55.500Z,19.33
2022-10-15T01:37:35.455Z,13.13
2022-10-15T01:40:07.841Z,35.83
2022-10-15T01:42:40.162Z,54.25
2022-10-15T01:45:10.606Z,61.80
2022-10-15T01:47:49.599Z,42.13
2022-10-15T01:50:19.171Z,123.55
2022-10-15T01:52:46.141Z,81.53
2022-10-15T01:55:15.401Z,121.82
2022-10-15T01:57:44.611Z,162.90
2022-10-15T02:00:12.213Z,46.92
2022-10-15T02:02:38.895Z,37.25
2022-10-15T02:05:07.717Z,93.97
2022-10-15T02:07:49.787Z,45.23
2022-10-15T02:10:16.316Z,57.22
2022-10-15T02:12:59.134Z,115.22
2022-10-15T02:15:40.423Z,56.65
2022-10-15T02:18:18.624Z,45.58
2022-10-15T02:20:57.737Z,32.25
2022-10-15T02:23:33.819Z,53.50
2022-10-15T02:26:01.582Z,38.60
2022-10-15T02:28:29.938Z,30.30
2022-10-15T02:30:58.412Z,22.00
2022-10-15T02:33:26.748Z,19.60
2022-10-15T02:35:54.995Z,14.05
2022-10-15T02:38:24.212Z,18.42
2022-10-15T02:40:51.661Z,27.60
2022-10-15T02:43:20.825Z,34.88
2022-10-15T02:45:48.729Z,18.33
2022-10-15T02:48:15.887Z,11.15
2022-10-15T02:50:42.674Z,9.40
2022-10-15T02:53:09.557Z,22.17
2022-10-15T02:55:36.318Z,21.52
2022-10-15T02:58:03.015Z,20.58
2022-10-15T03:00:29.675Z,67.10
2022-10-15T03:02:56.424Z,87.32
2022-10-15T03:05:23.312Z,59.15
2022-10-15T03:07:49.912Z,62.38
2022-10-15T03:10:16.715Z,99.95
2022-10-15T03:12:43.368Z,64.18
2022-10-15T03:15:10.166Z,114.40
2022-10-15T03:17:36.874Z,132.07
2022-10-15T03:20:04.353Z,149.60
2022-10-15T03:22:31.057Z,20.67
2022-10-15T03:24:57.897Z,13.55
2022-10-15T03:27:25.548Z,20.42
2022-10-15T03:29:52.441Z,67.13
2022-10-15T03:32:19.075Z,66.47
2022-10-15T03:34:45.679Z,56.72
2022-10-15T03:37:12.245Z,58.42
2022-10-15T03:39:38.962Z,98.53
2022-10-15T03:42:05.645Z,125.55
2022-10-15T03:44:32.263Z,100.70
2022-10-15T03:46:58.838Z,59.33
2022-10-15T03:49:25.516Z,40.13
2022-10-15T03:51:52.111Z,98.80
2022-10-15T03:54:18.798Z,23.92
2022-10-15T03:56:45.431Z,38.35
2022-10-15T03:59:12.019Z,320.55
2022-10-15T04:01:38.906Z,376.17
2022-10-15T04:04:05.738Z,315.10
2022-10-15T04:06:34.334Z,136.77
2022-10-15T04:09:01.088Z,217.73
2022-10-15T04:11:27.840Z,325.77
2022-10-15T04:13:54.566Z,180.20
2022-10-15T04:16:21.193Z,270.88
2022-10-15T04:18:47.866Z,329.17
2022-10-15T04:21:14.467Z,343.98
2022-10-15T04:23:41.118Z,42.97
2022-10-15T04:26:07.849Z,179.25
2022-10-15T04:28:34.523Z,326.73
2022-10-15T04:31:02.061Z,213.50
2022-10-15T04:33:28.993Z,100.00
2022-10-15T04:36:07.969Z,302.27
2022-10-15T04:38:35.125Z,92.30
2022-10-15T04:41:07.463Z,179.07
2022-10-15T04:43:34.285Z,147.13
2022-10-15T04:46:03.470Z,184.18
2022-10-15T04:48:32.646Z,117.95
2022-10-15T04:51:11.404Z,180.88
2022-10-15T04:53:38.236Z,7.05
2022-10-15T04:56:07.566Z,17.55
2022-10-15T04:58:35.656Z,5.13
2022-10-15T05:01:07.888Z,15.30
2022-10-15T05:03:38.456Z,16.33
2022-10-15T05:06:14.094Z,10.73
2022-10-15T05:08:42.047Z,3.30
2022-10-15T05:11:11.351Z,5.20
2022-10-15T05:13:38.297Z,4.57
2022-10-15T05:16:31.543Z,2.22
2022-10-15T05:19:05.054Z,8.13
2022-10-15T05:21:33.830Z,7.55
2022-10-15T05:24:00.642Z,10.40
2022-10-15T05:26:29.267Z,7.00
2022-10-15T05:28:57.952Z,4.97
2022-10-15T05:31:26.871Z,2.73
2022-10-15T05:33:54.130Z,6.07
2022-10-15T05:36:29.333Z,5.85
2022-10-15T05:39:00.987Z,2.55
2022-10-15T05:41:28.977Z,3.47
2022-10-15T05:43:57.691Z,1.95
2022-10-15T05:46:24.894Z,5.03
2022-10-15T05:48:53.796Z,2.15
2022-10-15T05:51:20.784Z,1.88
2022-10-15T05:53:47.592Z,1.58
2022-10-15T05:56:16.675Z,3.30
2022-10-15T05:58:43.313Z,3.15
2022-10-15T06:01:12.414Z,4.90
2022-10-15T06:03:40.914Z,7.10
2022-10-15T06:06:22.781Z,5.85
2022-10-15T06:08:50.655Z,10.98
2022-10-15T06:11:17.926Z,9.40
2022-10-15T06:13:45.872Z,11.35
2022-10-15T06:16:15.598Z,11.98
2022-10-15T06:18:44.797Z,13.13
2022-10-15T06:21:11.825Z,12.05
2022-10-15T06:23:38.986Z,12.82
2022-10-15T06:26:10.042Z,11.63
2022-10-15T06:28:37.760Z,9.15
2022-10-15T06:31:05.235Z,10.40
2022-10-15T06:33:32.300Z,12.73
2022-10-15T06:36:07.429Z,12.45
2022-10-15T06:38:34.377Z,10.70
2022-10-15T06:41:04.093Z,13.07
2022-10-15T06:46:01.169Z,13.30
2022-10-15T06:48:28.033Z,9.23
2022-10-15T06:50:54.649Z,9.60
2022-10-15T06:53:23.019Z,8.57
2022-10-15T06:55:49.780Z,6.93
2022-10-15T06:58:16.376Z,10.43
2022-10-15T07:00:43.060Z,14.13
2022-10-15T07:03:09.686Z,13.18
2022-10-15T07:05:36.345Z,12.02
2022-10-15T07:08:03.161Z,13.25
2022-10-15T07:10:30.220Z,10.35
2022-10-15T07:13:00.335Z,9.93
2022-10-15T07:15:27.262Z,9.10
2022-10-15T07:18:01.375Z,9.15
2022-10-15T07:20:31.222Z,9.68
2022-10-15T07:23:02.369Z,9.57
2022-10-15T07:25:29.222Z,8.02
2022-10-15T07:27:56.834Z,9.23
2022-10-15T07:30:27.402Z,12.18
2022-10-15T07:32:59.045Z,7.25
2022-10-15T07:35:26.693Z,7.53
2022-10-15T07:37:53.830Z,8.48
2022-10-15T07:40:20.759Z,6.75
2022-10-15T07:42:54.187Z,6.80
2022-10-15T07:45:20.936Z,7.15
2022-10-15T07:47:47.601Z,5.40
2022-10-15T07:50:14.342Z,11.02
2022-10-15T07:52:41.456Z,6.40
2022-10-15T07:55:08.509Z,4.30
2022-10-15T07:57:35.156Z,7.45
2022-10-15T08:00:01.751Z,3.30
2022-10-15T08:02:28.422Z,5.35
2022-10-15T08:04:55.174Z,3.03
2022-10-15T08:07:21.823Z,5.47
2022-10-15T08:09:48.765Z,7.57
2022-10-15T08:12:15.432Z,4.93
2022-10-15T08:14:42.163Z,7.00
2022-10-15T08:17:08.761Z,6.43
2022-10-15T08:19:35.407Z,6.22
2022-10-15T08:22:02.175Z,5.50
2022-10-15T08:24:30.146Z,5.57
2022-10-15T08:26:59.951Z,8.13
2022-10-15T08:29:26.659Z,4.03
2022-10-15T08:31:53.260Z,7.25
2022-10-15T08:34:19.877Z,11.05
2022-10-15T08:36:46.583Z,9.77
2022-10-15T08:39:13.228Z,12.73
2022-10-15T08:42:08.023Z,13.93
2022-10-15T08:44:44.026Z,16.77
2022-10-15T08:47:21.783Z,16.80
2022-10-15T08:49:57.811Z,16.02
2022-10-15T08:52:45.857Z,17.08
2022-10-15T08:55:15.615Z,12.90
2022-10-15T09:00:50.025Z,24.25
2022-10-15T09:03:54.072Z,20.17
2022-10-15T09:06:35.935Z,23.38
2022-10-15T09:09:30.839Z,20.20
2022-10-15T09:12:11.990Z,24.15
2022-10-15T09:14:42.761Z,32.85
2022-10-15T09:17:25.353Z,34.67
2022-10-15T09:19:57.628Z,34.42
2022-10-15T09:22:29.720Z,32.72
2022-10-15T09:24:56.978Z,35.70
2022-10-15T09:27:38.247Z,41.58
2022-10-15T09:30:25.023Z,37.75
2022-10-15T09:33:05.919Z,32.95
2022-10-15T09:35:48.423Z,28.00
2022-10-15T09:38:39.741Z,40.00
2022-10-15T09:41:33.929Z,29.10
2022-10-15T09:44:03.665Z,28.20
2022-10-15T09:46:32.418Z,25.98
2022-10-15T09:49:08.953Z,23.95
2022-10-15T09:51:43.733Z,23.30
2022-10-15T09:54:18.154Z,21.65
2022-10-15T09:56:52.944Z,22.50
2022-10-15T09:59:22.166Z,15.18
2022-10-15T10:02:02.043Z,12.82
2022-10-15T10:04:31.649Z,9.65
2022-10-15T10:07:04.601Z,7.72
2022-10-15T10:09:47.436Z,7.28
2022-10-15T10:12:27.457Z,5.55
2022-10-15T10:15:22.289Z,3.38
2022-10-15T10:17:56.677Z,4.28
2022-10-15T10:20:28.666Z,5.53
2022-10-15T10:23:00.181Z,3.85
2022-10-15T10:25:26.867Z,4.30
2022-10-15T10:27:59.011Z,3.28
2022-10-15T10:30:25.691Z,4.05
2022-10-15T10:32:58.581Z,3.58
2022-10-15T10:35:32.456Z,3.17
2022-10-15T10:37:59.097Z,10.25
2022-10-15T10:40:34.101Z,3.72
2022-10-15T10:43:15.743Z,5.43
2022-10-15T10:46:14.753Z,6.50
2022-10-15T10:48:47.064Z,5.03
2022-10-15T10:51:24.897Z,5.80
2022-10-15T10:54:06.895Z,5.05
2022-10-15T10:56:43.249Z,5.68
2022-10-15T10:59:20.732Z,5.55
2022-10-15T11:01:47.994Z,5.55
2022-10-15T11:04:30.198Z,6.30
2022-10-15T11:07:19.765Z,7.00
2022-10-15T11:10:04.450Z,8.85
2022-10-15T11:12:38.345Z,10.15
2022-10-15T11:15:25.897Z,8.00
2022-10-15T11:18:20.850Z,11.63
2022-10-15T11:21:03.159Z,12.10
2022-10-15T11:23:41.290Z,10.65
2022-10-15T11:26:51.976Z,11.40
2022-10-15T11:29:40.327Z,14.38
2022-10-15T11:32:25.622Z,12.63
2022-10-15T11:34:58.795Z,14.45
2022-10-15T11:37:31.139Z,13.65
2022-10-15T11:40:21.105Z,10.35
2022-10-15T11:43:04.218Z,10.63
2022-10-15T11:45:43.921Z,10.20
2022-10-15T11:50:50.831Z,11.90
2022-10-15T11:53:37.198Z,11.23
2022-10-15T11:56:18.906Z,11.30
2022-10-15T11:58:54.473Z,13.63
2022-10-15T12:01:30.730Z,10.07
2022-10-15T12:04:03.727Z,10.07
2022-10-15T12:06:36.293Z,8.85
2022-10-15T12:09:05.441Z,10.68
2022-10-15T12:12:07.025Z,8.30
2022-10-15T12:15:03.677Z,12.60
2022-10-15T12:17:40.359Z,8.60
2022-10-15T12:20:15.082Z,9.60
2022-10-15T12:22:54.407Z,6.35
2022-10-15T12:25:36.225Z,14.00
2022-10-15T12:28:13.909Z,10.13
2022-10-15T12:30:42.457Z,6.78
2022-10-15T12:33:31.762Z,18.23
2022-10-15T12:36:09.264Z,10.65
2022-10-15T12:38:43.578Z,8.48
2022-10-15T12:41:13.751Z,7.75
2022-10-15T12:43:44.111Z,11.00
2022-10-15T12:46:13.224Z,12.02
2022-10-15T12:48:48.756Z,8.70
2022-10-15T12:51:21.641Z,13.43
2022-10-15T12:53:52.115Z,9.77
2022-10-15T12:56:24.338Z,9.27
2022-10-15T12:58:52.107Z,12.05
2022-10-15T13:01:18.749Z,10.68
2022-10-15T13:03:54.446Z,11.20
2022-10-15T13:06:21.035Z,13.98
2022-10-15T13:09:10.925Z,11.07
2022-10-15T13:11:44.109Z,15.52
2022-10-15T13:14:29.426Z,11.93
2022-10-15T13:16:57.527Z,13.70
2022-10-15T13:19:39.100Z,14.88
2022-10-15T13:22:19.813Z,13.75
2022-10-15T13:24:46.486Z,11.80
2022-10-15T13:27:39.521Z,12.25
2022-10-15T13:30:16.628Z,14.70
2022-10-15T13:32:51.115Z,12.45
2022-10-15T13:35:21.238Z,15.65
2022-10-15T13:37:49.299Z,15.07
2022-10-15T13:40:22.912Z,18.60
2022-10-15T13:43:06.861Z,14.82
2022-10-15T13:45:34.518Z,14.07
2022-10-15T13:48:01.158Z,15.88
2022-10-15T13:50:35.394Z,15.63
2022-10-15T13:53:42.702Z,9.43
2022-10-15T13:56:25.363Z,5.50
2022-10-15T13:58:52.381Z,3.30
2022-10-15T14:01:22.028Z,4.13
2022-10-15T14:06:22.225Z,3.38
2022-10-15T14:08:51.149Z,4.95
2022-10-15T14:11:18.930Z,0.77
2022-10-15T14:13:47.237Z,0.82
2022-10-15T14:16:31.300Z,0.73
2022-10-15T14:19:09.603Z,6.25
2022-10-15T14:21:37.645Z,1.90
2022-10-15T14:24:06.415Z,1.48
2022-10-15T14:26:34.613Z,2.67
2022-10-15T14:29:02.390Z,4.97
2022-10-15T14:31:32.678Z,1.02
2022-10-15T14:33:59.530Z,0.70
2022-10-15T14:36:31.604Z,1.88
2022-10-15T14:39:25.074Z,3.33
2022-10-15T14:42:25.607Z,0.80
2022-10-15T14:44:52.259Z,3.25
2022-10-15T14:47:27.521Z,2.35
2022-10-15T14:49:59.751Z,2.42
2022-10-15T14:52:28.851Z,1.17
2022-10-15T14:55:01.722Z,2.03
2022-10-15T14:57:32.191Z,3.70
2022-10-15T15:00:00.019Z,0.82
2022-10-15T15:02:28.670Z,0.90
2022-10-15T15:05:08.871Z,6.60
2022-10-15T15:07:35.489Z,4.30
2022-10-15T15:10:02.420Z,2.22
2022-10-15T15:12:31.383Z,1.98
2022-10-15T15:14:58.392Z,0.75
2022-10-15T15:17:27.977Z,2.72
2022-10-15T15:19:56.701Z,3.28
2022-10-15T15:22:35.203Z,5.30
2022-10-15T15:25:06.559Z,4.45
2022-10-15T15:27:37.185Z,2.33
2022-10-15T15:30:06.470Z,1.05
2022-10-15T15:32:34.001Z,0.60
2022-10-15T15:35:00.922Z,2.85
2022-10-15T15:37:30.236Z,2.25
2022-10-15T15:39:56.922Z,2.45
2022-10-15T15:42:24.616Z,0.70
2022-10-15T15:44:51.455Z,3.58
2022-10-15T15:47:18.778Z,3.13
2022-10-15T15:49:45.488Z,2.45
2022-10-15T15:52:18.885Z,1.20
2022-10-15T15:54:46.465Z,1.50
2022-10-15T15:57:13.579Z,1.23
2022-10-15T15:59:40.261Z,1.17
2022-10-15T16:02:07.350Z,3.13
2022-10-15T16:04:34.032Z,0.63
2022-10-15T16:07:00.710Z,1.63
2022-10-15T16:09:27.681Z,1.85
2022-10-15T16:11:54.263Z,1.27
2022-10-15T16:14:20.954Z,1.65
2022-10-15T16:16:47.591Z,4.57
2022-10-15T16:19:14.307Z,1.40
2022-10-15T16:21:41.046Z,1.80
2022-10-15T16:24:07.920Z,1.48
2022-10-15T16:26:34.565Z,1.50
2022-10-15T16:29:01.259Z,1.48
2022-10-15T16:31:33.205Z,1.15
2022-10-15T16:33:59.871Z,4.03
2022-10-15T16:36:26.509Z,1.48
2022-10-15T16:38:53.807Z,2.33
2022-10-15T16:41:20.499Z,0.82
2022-10-15T16:43:47.718Z,2.47
2022-10-15T16:46:15.858Z,1.90
2022-10-15T16:48:42.717Z,1.25
2022-10-15T16:51:15.879Z,1.42
2022-10-15T16:53:46.181Z,1.15
2022-10-15T16:56:22.906Z,0.88
2022-10-15T16:58:49.895Z,3.28
2022-10-15T17:01:25.511Z,3.08
2022-10-15T17:03:52.597Z,1.77
2022-10-15T17:06:25.013Z,1.30
2022-10-15T17:08:54.206Z,337.10
2022-10-15T17:11:23.404Z,53.40
2022-10-15T17:13:52.229Z,11.60
2022-10-15T17:16:25.384Z,4.25
2022-10-15T17:18:52.970Z,2.95
2022-10-15T17:21:22.555Z,3.28
2022-10-15T17:23:51.952Z,4.07
2022-10-15T17:26:21.225Z,4.00
2022-10-15T17:28:49.239Z,4.45
2022-10-15T17:31:18.783Z,5.20
2022-10-15T17:33:46.450Z,3.33
2022-10-15T17:36:14.529Z,3.50
2022-10-15T17:38:41.538Z,5.22
2022-10-15T17:41:11.908Z,3.33
2022-10-15T17:43:40.180Z,2.83
2022-10-15T17:46:15.817Z,2.25
2022-10-15T17:48:42.872Z,2.45
2022-10-15T17:51:11.886Z,1.95
2022-10-15T17:53:38.717Z,3.63
2022-10-15T17:56:16.931Z,5.32
2022-10-15T17:58:44.348Z,5.40
2022-10-15T18:01:28.028Z,6.43
2022-10-15T18:04:06.897Z,3.90
2022-10-15T18:06:33.702Z,3.85
2022-10-15T18:09:00.450Z,4.90
2022-10-15T18:11:32.820Z,4.30
2022-10-15T18:13:59.931Z,7.55
2022-10-15T18:16:26.907Z,5.88
2022-10-15T18:18:54.452Z,4.60
2022-10-15T18:21:22.991Z,5.55
2022-10-15T18:23:49.697Z,5.90
2022-10-15T18:26:20.727Z,4.65
2022-10-15T18:28:49.455Z,3.35
2022-10-15T18:31:16.689Z,5.10
2022-10-15T18:33:48.795Z,2.83
2022-10-15T18:36:18.663Z,3.33
2022-10-15T18:38:45.470Z,2.30
2022-10-15T18:41:20.330Z,4.53
2022-10-15T18:43:53.672Z,5.60
2022-10-15T18:46:20.825Z,3.08
2022-10-15T18:48:47.670Z,3.60
2022-10-15T18:51:15.017Z,1.55
2022-10-15T18:53:41.924Z,1.45
2022-10-15T18:56:09.383Z,2.50
2022-10-15T18:58:38.862Z,1.27
2022-10-15T19:01:12.757Z,2.42
2022-10-15T19:03:39.517Z,2.63
2022-10-15T19:06:06.346Z,2.58
2022-10-15T19:08:33.997Z,2.80
2022-10-15T19:11:06.082Z,1.90
2022-10-15T19:13:32.712Z,3.28
2022-10-15T19:16:01.947Z,2.15
2022-10-15T19:18:29.111Z,2.20
2022-10-15T19:20:55.864Z,2.45
2022-10-15T19:23:22.698Z,6.10
2022-10-15T19:25:49.392Z,6.68
2022-10-15T19:28:16.012Z,4.25
2022-10-15T19:30:42.665Z,5.97
2022-10-15T19:33:09.334Z,4.10
2022-10-15T19:35:44.368Z,5.30
2022-10-15T19:38:11.683Z,4.68
2022-10-15T19:40:39.265Z,5.63
2022-10-15T19:43:06.993Z,5.72
2022-10-15T19:45:51.612Z,5.90
2022-10-15T19:48:19.823Z,5.35
2022-10-15T19:50:47.300Z,5.40
2022-10-15T19:53:16.387Z,508.95
2022-10-15T19:55:44.078Z,119.57
2022-10-15T19:58:10.819Z,28.67
2022-10-15T20:00:37.460Z,13.45
2022-10-15T20:03:04.259Z,13.43
2022-10-15T20:05:30.941Z,8.38
2022-10-15T20:07:57.565Z,8.18
2022-10-15T20:10:26.249Z,8.05
2022-10-15T20:12:53.534Z,8.77
2022-10-15T20:15:20.799Z,9.15
2022-10-15T20:17:47.937Z,9.57
2022-10-15T20:20:14.992Z,9.68
2022-10-15T20:22:41.815Z,12.63
2022-10-15T20:25:08.850Z,8.88
2022-10-15T20:27:35.490Z,7.75
2022-10-15T20:30:02.122Z,8.68
2022-10-15T20:32:36.116Z,7.75
2022-10-15T20:35:04.790Z,7.55
2022-10-15T20:37:31.673Z,6.45
2022-10-15T20:39:59.591Z,7.95
2022-10-15T20:42:26.528Z,8.35
2022-10-15T20:44:53.251Z,7.93
2022-10-15T20:47:20.407Z,7.82
2022-10-15T20:49:49.953Z,10.05
2022-10-15T20:52:16.640Z,7.13
2022-10-15T20:54:43.455Z,5.90
2022-10-15T20:57:10.938Z,7.72
2022-10-15T20:59:38.485Z,6.50
2022-10-15T21:02:05.227Z,9.05
2022-10-15T21:04:31.834Z,7.43
2022-10-15T21:06:58.493Z,5.07
2022-10-15T21:09:25.239Z,9.10
2022-10-15T21:11:51.916Z,7.10
2022-10-15T21:14:18.519Z,6.88
2022-10-15T21:16:45.113Z,7.07
2022-10-15T21:19:11.786Z,6.78
2022-10-15T21:21:39.133Z,7.72
2022-10-15T21:24:06.000Z,6.97
2022-10-15T21:26:32.837Z,6.13
2022-10-15T21:29:00.318Z,7.07
2022-10-15T21:31:27.672Z,6.70
2022-10-15T21:33:57.602Z,5.80
2022-10-15T21:36:28.377Z,6.68
2022-10-15T21:39:00.169Z,12.10
2022-10-15T21:41:30.443Z,7.13
2022-10-15T21:43:58.239Z,6.03
2022-10-15T21:46:25.556Z,6.55
2022-10-15T21:48:52.914Z,8.30
2022-10-15T21:51:24.013Z,5.20
2022-10-15T21:53:50.835Z,7.03
2022-10-15T21:56:19.571Z,7.50
2022-10-15T21:58:46.484Z,9.63
2022-10-15T22:01:19.488Z,9.75
2022-10-15T22:03:47.416Z,10.20
2022-10-15T22:06:14.794Z,9.65
2022-10-15T22:08:41.823Z,24.95
2022-10-15T22:14:00.407Z,9.48
2022-10-15T22:16:28.374Z,7.35
2022-10-15T22:18:56.237Z,9.20
2022-10-15T22:21:25.837Z,10.80
2022-10-15T22:23:57.682Z,17.92
2022-10-15T22:26:30.195Z,13.32
2022-10-15T22:28:58.776Z,9.52
2022-10-15T22:31:26.334Z,8.88
2022-10-15T22:33:53.185Z,16.20
2022-10-15T22:36:25.257Z,12.10
2022-10-15T22:39:01.772Z,9.88
2022-10-15T22:41:29.977Z,11.70
2022-10-15T22:43:57.111Z,9.93
2022-10-15T22:46:23.927Z,13.52
2022-10-15T22:48:50.742Z,11.25
2022-10-15T22:51:17.530Z,18.30
2022-10-15T22:53:44.305Z,10.13
2022-10-15T22:56:14.013Z,11.23
2022-10-15T23:01:16.107Z,8.77
2022-10-15T23:03:45.085Z,14.55
2022-10-15T23:06:12.749Z,8.65
2022-10-15T23:08:39.758Z,6.53
2022-10-15T23:11:10.671Z,4.78
2022-10-15T23:13:39.000Z,5.20
2022-10-15T23:16:17.631Z,5.18
2022-10-15T23:18:46.389Z,4.90
2022-10-15T23:21:26.739Z,5.30
2022-10-15T23:23:53.627Z,6.55
2022-10-15T23:26:20.395Z,9.77
2022-10-15T23:28:52.231Z,5.72
2022-10-15T23:31:21.317Z,6.53
2022-10-15T23:33:48.263Z,4.30
2022-10-15T23:36:15.246Z,4.60
2022-10-15T23:38:41.955Z,4.00
2022-10-15T23:41:10.185Z,5.85
2022-10-15T23:43:37.383Z,5.95
2022-10-15T23:46:04.433Z,4.07
2022-10-15T23:48:31.063Z,4.28
2022-10-15T23:51:00.977Z,4.45
2022-10-15T23:53:32.941Z,10.70
2022-10-15T23:56:02.762Z,5.15
